createdAt,value
2022-12-08T00:00:06.071Z,97284.59
2022-12-08T00:02:44.724Z,97282.03
2022-12-08T00:05:30.315Z,97281.25
2022-12-08T00:08:15.949Z,97282.94
2022-12-08T00:10:49.988Z,97275.19
2022-12-08T00:13:19.901Z,97268.38
2022-12-08T00:15:48.238Z,97274.94
2022-12-08T00:18:16.499Z,97276.56
2022-12-08T00:20:44.745Z,97268.09
2022-12-08T00:23:13.017Z,97274.81
2022-12-08T00:25:41.247Z,97273.13
2022-12-08T00:28:09.508Z,97270.63
2022-12-08T00:30:40.870Z,97272.00
2022-12-08T00:33:09.188Z,97265.09
2022-12-08T00:35:42.791Z,97270.41
2022-12-08T00:38:11.459Z,97270.50
2022-12-08T00:40:39.710Z,97266.16
2022-12-08T00:43:08.086Z,97264.56
2022-12-08T00:45:38.698Z,97265.31
2022-12-08T00:48:07.717Z,97268.81
2022-12-08T00:50:36.317Z,97264.50
2022-12-08T00:53:04.719Z,97264.59
2022-12-08T00:55:32.961Z,97256.06
2022-12-08T00:58:01.200Z,97269.44
2022-12-08T01:00:29.596Z,97268.72
2022-12-08T01:02:59.281Z,97268.78
2022-12-08T01:05:27.846Z,97265.47
2022-12-08T01:07:56.139Z,97270.34
2022-12-08T01:10:24.541Z,97267.59
2022-12-08T01:12:52.795Z,97265.97
2022-12-08T01:15:21.503Z,97262.50
2022-12-08T01:17:49.724Z,97266.88
2022-12-08T01:20:19.428Z,97270.91
2022-12-08T01:22:47.693Z,97272.69
2022-12-08T01:25:16.047Z,97266.97
2022-12-08T01:27:44.303Z,97268.66
2022-12-08T01:30:13.765Z,97275.44
2022-12-08T01:32:42.027Z,97264.41
2022-12-08T01:35:10.766Z,97262.72
2022-12-08T01:37:40.941Z,97266.16
2022-12-08T01:40:10.318Z,97255.84
2022-12-08T01:42:38.585Z,97258.59
2022-12-08T01:45:08.284Z,97251.75
2022-12-08T01:47:40.983Z,97252.66
2022-12-08T01:50:12.166Z,97240.75
2022-12-08T01:52:43.881Z,97238.22
2022-12-08T01:55:16.336Z,97231.88
2022-12-08T01:57:47.412Z,97231.53
2022-12-08T02:00:17.924Z,97224.25
2022-12-08T02:02:53.886Z,97224.59
2022-12-08T02:05:24.474Z,97219.44
2022-12-08T02:07:55.422Z,97220.31
2022-12-08T02:10:25.407Z,97219.66
2022-12-08T02:12:55.331Z,97210.50
2022-12-08T02:15:27.948Z,97214.63
2022-12-08T02:18:05.857Z,97208.66
2022-12-08T02:20:45.559Z,97211.34
2022-12-08T02:23:23.799Z,97206.97
2022-12-08T02:26:11.746Z,97196.50
2022-12-08T02:28:56.835Z,97208.53
2022-12-08T02:31:35.673Z,97210.97
2022-12-08T02:34:17.351Z,97204.16
2022-12-08T02:36:50.689Z,97205.66
2022-12-08T02:39:28.555Z,97199.72
2022-12-08T02:42:02.256Z,97210.88
2022-12-08T02:44:32.833Z,97206.50
2022-12-08T02:47:05.706Z,97206.69
2022-12-08T02:49:36.588Z,97199.56
2022-12-08T02:52:09.956Z,97201.41
2022-12-08T02:54:38.558Z,97196.50
2022-12-08T02:57:20.212Z,97191.41
2022-12-08T03:00:01.027Z,97191.41
2022-12-08T03:02:43.150Z,97192.34
2022-12-08T03:05:23.439Z,97199.91
2022-12-08T03:07:56.921Z,97187.16
2022-12-08T03:10:29.347Z,97189.69
2022-12-08T03:13:00.227Z,97192.28
2022-12-08T03:15:29.190Z,97185.47
2022-12-08T03:17:59.718Z,97181.16
2022-12-08T03:20:31.513Z,97181.16
2022-12-08T03:23:01.694Z,97179.66
2022-12-08T03:25:33.382Z,97177.94
2022-12-08T03:28:01.855Z,97169.19
2022-12-08T03:30:30.986Z,97169.13
2022-12-08T03:33:03.710Z,97162.41
2022-12-08T03:35:35.797Z,97158.78
2022-12-08T03:38:05.177Z,97158.78
2022-12-08T03:40:33.437Z,97159.78
2022-12-08T03:43:02.131Z,97165.91
2022-12-08T03:45:30.502Z,97153.91
2022-12-08T03:47:59.762Z,97159.66
2022-12-08T03:50:28.241Z,97150.41
2022-12-08T03:52:58.067Z,97145.53
2022-12-08T03:55:26.347Z,97135.34
2022-12-08T03:57:54.602Z,97129.38
2022-12-08T04:00:23.473Z,97128.28
2022-12-08T04:02:51.787Z,97124.88
2022-12-08T04:05:20.107Z,97131.00
2022-12-08T04:07:48.356Z,97130.22
2022-12-08T04:10:18.196Z,97128.59
2022-12-08T04:12:46.384Z,97133.72
2022-12-08T04:15:14.752Z,97127.81
2022-12-08T04:17:43.028Z,97122.78
2022-12-08T04:20:12.441Z,97131.88
2022-12-08T04:22:40.866Z,97127.81
2022-12-08T04:25:09.914Z,97121.84
2022-12-08T04:27:39.666Z,97120.97
2022-12-08T04:30:09.444Z,97125.22
2022-12-08T04:32:38.964Z,97119.97
2022-12-08T04:35:09.646Z,97120.88
2022-12-08T04:37:37.917Z,97119.97
2022-12-08T04:40:07.867Z,97118.13
2022-12-08T04:42:36.111Z,97118.16
2022-12-08T04:45:07.190Z,97112.00
2022-12-08T04:47:36.005Z,97107.16
2022-12-08T04:50:05.679Z,97103.91
2022-12-08T04:52:34.370Z,97103.16
2022-12-08T04:55:02.992Z,97095.53
2022-12-08T04:57:31.409Z,97092.13
2022-12-08T05:00:00.485Z,97093.03
2022-12-08T05:02:30.387Z,97087.16
2022-12-08T05:04:58.886Z,97092.13
2022-12-08T05:07:28.059Z,97090.97
2022-12-08T05:09:56.327Z,97088.28
2022-12-08T05:12:24.929Z,97088.28
2022-12-08T05:14:53.318Z,97084.16
2022-12-08T05:17:21.688Z,97081.50
2022-12-08T05:19:51.599Z,97083.19
2022-12-08T05:22:19.985Z,97077.19
2022-12-08T05:24:48.415Z,97084.09
2022-12-08T05:27:17.325Z,97081.69
2022-12-08T05:29:47.197Z,97086.00
2022-12-08T05:32:15.697Z,97083.44
2022-12-08T05:34:44.206Z,97082.56
2022-12-08T05:37:14.038Z,97081.13
2022-12-08T05:39:42.326Z,97086.97
2022-12-08T05:42:10.816Z,97070.56
2022-12-08T05:44:39.316Z,97086.16
2022-12-08T05:47:07.643Z,97087.75
2022-12-08T05:49:38.507Z,97091.03
2022-12-08T05:52:07.492Z,97084.41
2022-12-08T05:54:37.321Z,97083.44
2022-12-08T05:57:05.766Z,97082.84
2022-12-08T05:59:34.026Z,97073.50
2022-12-08T06:02:02.437Z,97072.72
2022-12-08T06:04:30.895Z,97064.88
2022-12-08T06:06:59.314Z,97060.56
2022-12-08T06:09:27.906Z,97072.59
2022-12-08T06:11:57.596Z,97069.25
2022-12-08T06:14:25.951Z,97061.59
2022-12-08T06:16:54.266Z,97065.13
2022-12-08T06:19:22.780Z,97069.38
2022-12-08T06:21:51.149Z,97069.34
2022-12-08T06:24:19.418Z,97065.84
2022-12-08T06:26:47.818Z,97057.41
2022-12-08T06:29:18.072Z,97054.84
2022-12-08T06:31:47.001Z,97052.94
2022-12-08T06:34:15.327Z,97055.34
2022-12-08T06:36:43.801Z,97061.16
2022-12-08T06:39:13.339Z,97061.16
2022-12-08T06:41:55.831Z,97059.53
2022-12-08T06:44:26.180Z,97058.75
2022-12-08T06:46:54.573Z,97056.19
2022-12-08T06:49:23.040Z,97055.41
2022-12-08T06:51:51.301Z,97060.44
2022-12-08T06:54:19.634Z,97072.16
2022-12-08T06:56:47.908Z,97073.97
2022-12-08T06:59:17.666Z,97077.53
2022-12-08T07:01:47.469Z,97082.66
2022-12-08T07:04:16.570Z,97076.59
2022-12-08T07:06:45.116Z,97076.69
2022-12-08T07:09:13.476Z,97076.50
2022-12-08T07:11:42.176Z,97068.09
2022-12-08T07:14:10.978Z,97063.03
2022-12-08T07:16:39.615Z,97067.19
2022-12-08T07:19:09.365Z,97047.94
2022-12-08T07:21:37.717Z,97042.13
2022-12-08T07:24:06.866Z,97053.31
2022-12-08T07:26:35.392Z,97049.09
2022-12-08T07:29:03.833Z,97056.75
2022-12-08T07:31:32.334Z,97071.72
2022-12-08T07:34:00.891Z,97061.00
2022-12-08T07:36:30.686Z,97069.59
2022-12-08T07:39:00.168Z,97067.16
2022-12-08T07:41:28.499Z,97061.00
2022-12-08T07:43:57.524Z,97057.81
2022-12-08T07:46:26.777Z,97061.28
2022-12-08T07:48:55.878Z,97058.75
2022-12-08T07:51:24.983Z,97057.06
2022-12-08T07:53:55.378Z,97057.16
2022-12-08T07:56:24.373Z,97057.94
2022-12-08T07:58:52.998Z,97060.47
2022-12-08T08:01:23.224Z,97064.63
2022-12-08T08:03:51.937Z,97050.91
2022-12-08T08:06:20.232Z,97057.94
2022-12-08T08:08:48.815Z,97064.84
2022-12-08T08:11:21.315Z,97060.66
2022-12-08T08:13:50.219Z,97058.09
2022-12-08T08:16:19.750Z,97054.66
2022-12-08T08:18:49.023Z,97046.22
2022-12-08T08:24:06.797Z,97038.59
2022-12-08T08:26:38.258Z,97044.69
2022-12-08T08:29:06.581Z,97046.66
2022-12-08T08:31:34.903Z,97046.91
2022-12-08T08:34:06.343Z,97052.69
2022-12-08T08:36:34.899Z,97040.00
2022-12-08T08:39:03.927Z,97046.66
2022-12-08T08:41:32.394Z,97047.38
2022-12-08T08:44:02.272Z,97048.91
2022-12-08T08:46:30.642Z,97049.72
2022-12-08T08:48:59.367Z,97044.50
2022-12-08T08:51:27.818Z,97040.94
2022-12-08T08:53:56.202Z,97042.06
2022-12-08T08:56:24.619Z,97042.19
2022-12-08T08:58:54.340Z,97034.63
2022-12-08T09:01:25.746Z,97035.06
2022-12-08T09:03:55.286Z,97040.06
2022-12-08T09:06:24.827Z,97032.34
2022-12-08T09:08:53.552Z,97036.50
2022-12-08T09:11:23.693Z,97027.28
2022-12-08T09:13:55.541Z,97034.09
2022-12-08T09:16:25.880Z,97031.63
2022-12-08T09:18:54.297Z,97037.59
2022-12-08T09:21:25.907Z,97021.19
2022-12-08T09:23:56.351Z,97013.69
2022-12-08T09:26:24.847Z,97015.59
2022-12-08T09:28:54.132Z,97005.34
2022-12-08T09:31:23.848Z,97011.38
2022-12-08T09:33:53.832Z,97014.09
2022-12-08T09:36:22.772Z,97003.47
2022-12-08T09:38:53.606Z,97010.41
2022-12-08T09:41:30.822Z,97005.28
2022-12-08T09:44:08.877Z,97005.53
2022-12-08T09:46:38.973Z,97005.63
2022-12-08T09:49:14.386Z,97005.53
2022-12-08T09:51:43.435Z,97001.41
2022-12-08T09:54:16.290Z,96999.75
2022-12-08T09:56:44.789Z,97004.38
2022-12-08T09:59:24.379Z,97002.63
2022-12-08T10:01:53.138Z,96999.25
2022-12-08T10:04:25.748Z,96997.03
2022-12-08T10:07:04.984Z,96987.75
2022-12-08T10:09:39.359Z,96994.59
2022-12-08T10:12:15.201Z,96991.97
2022-12-08T10:14:44.929Z,97000.56
2022-12-08T10:17:20.110Z,96994.16
2022-12-08T10:19:51.075Z,96984.06
2022-12-08T10:22:23.295Z,96972.38
2022-12-08T10:25:00.420Z,96969.25
2022-12-08T10:27:29.683Z,96961.69
2022-12-08T10:29:58.166Z,96961.34
2022-12-08T10:32:27.264Z,96958.25
2022-12-08T10:35:07.192Z,96954.38
2022-12-08T10:37:35.516Z,96952.69
2022-12-08T10:40:10.388Z,96944.94
2022-12-08T10:42:40.816Z,96940.59
2022-12-08T10:45:22.234Z,96929.44
2022-12-08T10:47:58.717Z,96925.22
2022-12-08T10:50:34.390Z,96923.47
2022-12-08T10:53:04.694Z,96926.88
2022-12-08T10:55:42.505Z,96919.09
2022-12-08T10:58:29.279Z,96903.69
2022-12-08T11:01:00.238Z,96896.13
2022-12-08T11:03:31.097Z,96887.00
2022-12-08T11:06:09.011Z,96878.59
2022-12-08T11:08:48.173Z,96880.50
2022-12-08T11:11:17.040Z,96883.00
2022-12-08T11:13:45.785Z,96866.81
2022-12-08T11:16:16.362Z,96871.47
2022-12-08T11:18:48.230Z,96870.53
2022-12-08T11:21:19.600Z,96866.22
2022-12-08T11:23:49.628Z,96881.63
2022-12-08T11:26:23.115Z,96879.22
2022-12-08T11:28:51.708Z,96877.59
2022-12-08T11:31:26.677Z,96877.50
2022-12-08T11:33:55.057Z,96872.53
2022-12-08T11:36:27.110Z,96874.19
2022-12-08T11:38:58.435Z,96872.47
2022-12-08T11:41:29.913Z,96873.38
2022-12-08T11:44:06.242Z,96865.63
2022-12-08T11:46:39.645Z,96859.88
2022-12-08T11:49:12.056Z,96863.97
2022-12-08T11:51:48.429Z,96860.63
2022-12-08T11:54:24.451Z,96863.06
2022-12-08T11:56:57.164Z,96861.56
2022-12-08T11:59:30.834Z,96856.59
2022-12-08T12:02:00.393Z,96853.31
2022-12-08T12:04:32.355Z,96849.00
2022-12-08T12:07:26.497Z,96840.66
2022-12-08T12:10:20.990Z,96840.59
2022-12-08T12:13:00.636Z,96838.25
2022-12-08T12:16:04.305Z,96842.59
2022-12-08T12:18:35.696Z,96830.59
2022-12-08T12:21:09.016Z,96833.09
2022-12-08T12:23:42.767Z,96821.97
2022-12-08T12:26:19.845Z,96825.38
2022-12-08T12:28:52.694Z,96826.28
2022-12-08T12:31:24.662Z,96823.78
2022-12-08T12:33:55.606Z,96818.69
2022-12-08T12:36:26.244Z,96806.03
2022-12-08T12:39:06.378Z,96806.84
2022-12-08T12:41:44.701Z,96801.59
2022-12-08T12:44:43.638Z,96799.09
2022-12-08T12:47:16.536Z,96805.00
2022-12-08T12:50:07.727Z,96795.69
2022-12-08T12:52:41.284Z,96788.88
2022-12-08T12:55:29.490Z,96786.22
2022-12-08T12:57:59.367Z,96798.16
2022-12-08T13:00:28.767Z,96796.44
2022-12-08T13:02:59.308Z,96788.78
2022-12-08T13:05:29.164Z,96789.63
2022-12-08T13:08:00.549Z,96776.03
2022-12-08T13:10:32.854Z,96781.16
2022-12-08T13:13:08.287Z,96785.47
2022-12-08T13:15:38.410Z,96776.88
2022-12-08T13:18:07.474Z,96773.53
2022-12-08T13:20:43.515Z,96772.75
2022-12-08T13:23:28.454Z,96776.19
2022-12-08T13:26:22.586Z,96770.22
2022-12-08T13:29:24.587Z,96770.13
2022-12-08T13:31:54.372Z,96767.47
2022-12-08T13:34:37.169Z,96770.72
2022-12-08T13:37:20.369Z,96773.44
2022-12-08T13:39:52.778Z,96775.81
2022-12-08T13:42:26.663Z,96772.50
2022-12-08T13:45:48.775Z,96772.50
2022-12-08T13:52:29.491Z,96775.84
2022-12-08T13:54:42.510Z,96774.81
2022-12-08T13:59:28.246Z,96777.13
2022-12-08T14:01:58.604Z,96776.28
2022-12-08T14:04:54.337Z,96784.03
2022-12-08T14:07:16.265Z,96792.44
2022-12-08T14:09:44.782Z,96787.28
2022-12-08T14:12:19.915Z,96790.72
2022-12-08T14:15:06.529Z,96793.78
2022-12-08T14:17:35.167Z,96787.97
2022-12-08T14:20:06.736Z,96793.75
2022-12-08T14:22:36.665Z,96802.25
2022-12-08T14:25:06.729Z,96795.22
2022-12-08T14:27:36.971Z,96801.16
2022-12-08T14:30:08.462Z,96804.63
2022-12-08T14:32:40.177Z,96804.59
2022-12-08T14:35:21.841Z,96805.44
2022-12-08T14:37:52.116Z,96806.25
2022-12-08T14:40:24.224Z,96813.03
2022-12-08T14:42:55.555Z,96816.53
2022-12-08T14:45:25.584Z,96814.88
2022-12-08T14:47:54.114Z,96818.22
2022-12-08T14:50:41.252Z,96811.22
2022-12-08T14:53:18.085Z,96813.69
2022-12-08T14:55:48.836Z,96813.78
2022-12-08T14:58:24.155Z,96821.47
2022-12-08T15:00:58.435Z,96821.47
2022-12-08T15:03:29.036Z,96821.53
2022-12-08T15:05:59.879Z,96816.47
2022-12-08T15:08:28.382Z,96822.50
2022-12-08T15:11:26.492Z,96812.25
2022-12-08T15:13:56.213Z,96814.81
2022-12-08T15:16:32.266Z,96813.88
2022-12-08T15:19:17.031Z,96808.63
2022-12-08T15:21:47.961Z,96812.84
2022-12-08T15:24:17.000Z,96815.44
2022-12-08T15:26:47.760Z,96814.69
2022-12-08T15:29:21.825Z,96818.13
2022-12-08T15:31:52.676Z,96811.34
2022-12-08T15:34:21.883Z,96802.00
2022-12-08T15:36:51.939Z,96813.00
2022-12-08T15:39:32.126Z,96811.34
2022-12-08T15:42:02.550Z,96813.94
2022-12-08T15:44:33.098Z,96816.47
2022-12-08T15:47:03.123Z,96813.94
2022-12-08T15:49:31.562Z,96816.47
2022-12-08T15:52:10.753Z,96816.50
2022-12-08T15:54:40.057Z,96815.69
2022-12-08T15:57:20.217Z,96808.88
2022-12-08T15:59:50.987Z,96808.09
2022-12-08T16:02:22.808Z,96808.94
2022-12-08T16:07:41.563Z,96811.41
2022-12-08T16:10:12.673Z,96814.03
2022-12-08T16:15:59.278Z,96817.47
2022-12-08T16:18:33.232Z,96814.00
2022-12-08T16:21:45.552Z,96816.63
2022-12-08T16:23:50.437Z,96812.38
2022-12-08T16:27:22.110Z,96818.22
2022-12-08T16:29:12.390Z,96811.44
2022-12-08T16:31:41.219Z,96806.03
2022-12-08T16:34:11.427Z,96813.66
2022-12-08T16:36:39.849Z,96820.38
2022-12-08T16:39:09.468Z,96826.47
2022-12-08T16:41:55.779Z,96830.72
2022-12-08T16:44:24.522Z,96829.91
2022-12-08T16:46:53.032Z,96835.00
2022-12-08T16:49:24.253Z,96833.25
2022-12-08T16:51:55.376Z,96829.91
2022-12-08T16:54:24.456Z,96822.97
2022-12-08T16:56:53.793Z,96815.44
2022-12-08T16:59:22.566Z,96816.22
2022-12-08T17:01:51.215Z,96808.75
2022-12-08T17:04:34.894Z,96815.56
2022-12-08T17:07:05.001Z,96817.06
2022-12-08T17:09:33.675Z,96809.34
2022-12-08T17:12:04.410Z,96809.34
2022-12-08T17:14:35.172Z,96809.63
2022-12-08T17:17:04.748Z,96804.97
2022-12-08T17:19:34.750Z,96804.97
2022-12-08T17:22:04.849Z,96809.09
2022-12-08T17:24:33.327Z,96809.09
2022-12-08T17:27:04.299Z,96798.75
2022-12-08T17:29:34.083Z,96806.41
2022-12-08T17:32:02.998Z,96807.44
2022-12-08T17:34:31.910Z,96808.28
2022-12-08T17:37:01.729Z,96815.97
2022-12-08T17:39:33.183Z,96806.63
2022-12-08T17:42:02.690Z,96814.28
2022-12-08T17:44:31.210Z,96807.53
2022-12-08T17:47:01.161Z,96811.88
2022-12-08T17:49:31.361Z,96816.91
2022-12-08T17:52:01.779Z,96816.06
2022-12-08T17:54:33.046Z,96811.97
2022-12-08T17:57:03.100Z,96824.63
2022-12-08T17:59:32.286Z,96821.13
2022-12-08T18:02:01.577Z,96813.44
2022-12-08T18:04:32.085Z,96819.44
2022-12-08T18:07:03.585Z,96812.81
2022-12-08T18:09:35.793Z,96814.38
2022-12-08T18:12:05.963Z,96812.66
2022-12-08T18:14:34.987Z,96816.25
2022-12-08T18:17:04.302Z,96811.22
2022-12-08T18:19:33.035Z,96815.59
2022-12-08T18:22:02.233Z,96807.16
2022-12-08T18:24:31.961Z,96811.22
2022-12-08T18:27:06.453Z,96806.13
2022-12-08T18:29:36.471Z,96811.19
2022-12-08T18:32:10.262Z,96808.63
2022-12-08T18:34:41.617Z,96811.97
2022-12-08T18:37:12.475Z,96815.59
2022-12-08T18:39:41.312Z,96819.00
2022-12-08T18:42:25.558Z,96813.88
2022-12-08T18:45:07.968Z,96812.13
2022-12-08T18:47:40.054Z,96808.56
2022-12-08T18:50:11.593Z,96811.78
2022-12-08T18:52:42.157Z,96802.47
2022-12-08T18:55:12.585Z,96806.00
2022-12-08T18:57:47.286Z,96805.16
2022-12-08T19:00:18.749Z,96797.38
2022-12-08T19:02:48.908Z,96798.94
2022-12-08T19:05:18.528Z,96789.53
2022-12-08T19:07:52.674Z,96781.94
2022-12-08T19:10:23.385Z,96785.06
2022-12-08T19:12:56.344Z,96789.88
2022-12-08T19:15:26.720Z,96799.75
2022-12-08T19:17:56.641Z,96800.72
2022-12-08T19:20:34.635Z,96798.13
2022-12-08T19:23:12.366Z,96800.72
2022-12-08T19:25:43.655Z,96796.56
2022-12-08T19:28:16.398Z,96799.97
2022-12-08T19:30:48.538Z,96796.56
2022-12-08T19:33:20.230Z,96798.16
2022-12-08T19:35:52.725Z,96810.22
2022-12-08T19:38:22.874Z,96814.25
2022-12-08T19:41:10.094Z,96813.16
2022-12-08T19:44:14.183Z,96805.22
2022-12-08T19:46:44.400Z,96794.00
2022-12-08T19:49:19.376Z,96803.31
2022-12-08T19:51:53.432Z,96790.47
2022-12-08T19:54:23.713Z,96796.38
2022-12-08T19:56:55.062Z,96789.44
2022-12-08T19:59:29.079Z,96797.31
2022-12-08T20:02:01.141Z,96797.53
2022-12-08T20:04:36.963Z,96788.81
2022-12-08T20:07:06.018Z,96793.91
2022-12-08T20:09:35.770Z,96797.28
2022-12-08T20:12:10.121Z,96787.84
2022-12-08T20:14:46.387Z,96802.25
2022-12-08T20:17:20.372Z,96821.66
2022-12-08T20:19:51.288Z,96815.84
2022-12-08T20:22:32.794Z,96817.91
2022-12-08T20:25:03.152Z,96815.31
2022-12-08T20:27:35.682Z,96822.13
2022-12-08T20:30:16.761Z,96817.19
2022-12-08T20:32:58.756Z,96811.72
2022-12-08T20:35:29.677Z,96798.00
2022-12-08T20:38:00.039Z,96792.03
2022-12-08T20:40:35.252Z,96796.38
2022-12-08T20:43:09.511Z,96791.28
2022-12-08T20:45:42.014Z,96801.31
2022-12-08T20:48:26.242Z,96805.34
2022-12-08T20:51:01.525Z,96799.41
2022-12-08T20:53:35.012Z,96800.50
2022-12-08T20:56:05.550Z,96794.44
2022-12-08T20:58:41.213Z,96789.34
2022-12-08T21:01:12.891Z,96794.59
2022-12-08T21:03:44.123Z,96798.75
2022-12-08T21:06:13.433Z,96802.28
2022-12-08T21:08:43.380Z,96808.16
2022-12-08T21:11:11.994Z,96791.75
2022-12-08T21:13:43.469Z,96783.31
2022-12-08T21:16:15.614Z,96794.59
2022-12-08T21:18:45.215Z,96791.75
2022-12-08T21:21:15.833Z,96795.16
2022-12-08T21:23:44.710Z,96796.78
2022-12-08T21:26:15.298Z,96806.06
2022-12-08T21:28:44.140Z,96809.50
2022-12-08T21:31:17.621Z,96805.28
2022-12-08T21:33:47.095Z,96796.16
2022-12-08T21:36:18.048Z,96806.06
2022-12-08T21:38:47.615Z,96801.22
2022-12-08T21:41:37.644Z,96802.81
2022-12-08T21:44:06.652Z,96806.06
2022-12-08T21:46:37.211Z,96800.13
2022-12-08T21:49:06.384Z,96804.88
2022-12-08T21:51:37.887Z,96804.38
2022-12-08T21:54:06.435Z,96811.69
2022-12-08T21:56:35.173Z,96815.03
2022-12-08T21:59:03.565Z,96815.78
2022-12-08T22:01:33.554Z,96814.06
2022-12-08T22:04:04.572Z,96812.28
2022-12-08T22:06:34.635Z,96804.09
2022-12-08T22:09:03.208Z,96810.06
2022-12-08T22:11:31.868Z,96808.13
2022-12-08T22:14:12.560Z,96802.19
2022-12-08T22:16:43.223Z,96792.88
2022-12-08T22:19:14.606Z,96793.63
2022-12-08T22:21:43.222Z,96797.13
2022-12-08T22:24:12.203Z,96798.00
2022-12-08T22:26:40.666Z,96803.13
2022-12-08T22:29:09.944Z,96787.88
2022-12-08T22:31:38.683Z,96781.09
2022-12-08T22:34:07.451Z,96774.38
2022-12-08T22:36:37.440Z,96776.78
2022-12-08T22:39:06.640Z,96775.78
2022-12-08T22:41:35.141Z,96777.53
2022-12-08T22:44:06.609Z,96784.28
2022-12-08T22:46:35.303Z,96792.72
2022-12-08T22:49:03.957Z,96795.38
2022-12-08T22:51:33.197Z,96788.53
2022-12-08T22:54:02.975Z,96778.34
2022-12-08T22:56:32.078Z,96785.03
2022-12-08T22:59:00.555Z,96781.75
2022-12-08T23:01:30.905Z,96784.38
2022-12-08T23:04:00.305Z,96776.66
2022-12-08T23:06:31.752Z,96774.28
2022-12-08T23:09:00.672Z,96780.34
2022-12-08T23:11:31.875Z,96783.63
2022-12-08T23:14:01.221Z,96778.47
2022-12-08T23:16:29.628Z,96777.53
2022-12-08T23:18:58.107Z,96782.63
2022-12-08T23:21:26.462Z,96778.44
2022-12-08T23:23:55.140Z,96769.88
2022-12-08T23:26:25.459Z,96762.00
2022-12-08T23:28:55.661Z,96758.44
2022-12-08T23:31:24.849Z,96764.66
2022-12-08T23:33:54.241Z,96771.41
2022-12-08T23:36:26.283Z,96774.78
2022-12-08T23:38:54.960Z,96764.66
2022-12-08T23:41:24.046Z,96762.00
2022-12-08T23:43:54.578Z,96761.91
2022-12-08T23:46:23.719Z,96760.16
2022-12-08T23:48:52.804Z,96759.50
2022-12-08T23:51:22.032Z,96739.91
2022-12-08T23:53:50.410Z,96746.69
2022-12-08T23:56:19.359Z,96750.97
2022-12-08T23:58:47.979Z,96742.50
